createdAt,value
2022-11-27T00:00:36.878Z,95639.91
2022-11-27T00:03:03.394Z,95627.03
2022-11-27T00:05:29.901Z,95625.25
2022-11-27T00:07:56.381Z,95636.22
2022-11-27T00:10:22.804Z,95635.03
2022-11-27T00:12:49.206Z,95628.00
2022-11-27T00:15:17.328Z,95627.75
2022-11-27T00:17:43.935Z,95629.31
2022-11-27T00:20:10.333Z,95630.28
2022-11-27T00:22:36.784Z,95630.38
2022-11-27T00:25:03.171Z,95622.50
2022-11-27T00:27:29.549Z,95616.06
2022-11-27T00:29:55.983Z,95606.06
2022-11-27T00:32:22.413Z,95606.78
2022-11-27T00:34:48.832Z,95601.06
2022-11-27T00:37:15.231Z,95610.25
2022-11-27T00:39:41.693Z,95602.59
2022-11-27T00:42:08.117Z,95604.41
2022-11-27T00:44:34.597Z,95595.81
2022-11-27T00:47:01.736Z,95592.25
2022-11-27T00:49:30.246Z,95594.88
2022-11-27T00:51:57.079Z,95601.66
2022-11-27T00:54:24.479Z,95595.34
2022-11-27T00:56:52.072Z,95601.06
2022-11-27T00:59:18.653Z,95600.03
2022-11-27T01:01:46.333Z,95593.69
2022-11-27T01:04:13.860Z,95585.47
2022-11-27T01:06:40.479Z,95597.63
2022-11-27T01:09:07.057Z,95604.28
2022-11-27T01:11:34.664Z,95596.56
2022-11-27T01:14:01.335Z,95602.03
2022-11-27T01:16:28.952Z,95604.53
2022-11-27T01:18:55.398Z,95614.66
2022-11-27T01:21:22.088Z,95609.78
2022-11-27T01:23:48.694Z,95612.38
2022-11-27T01:26:15.271Z,95612.97
2022-11-27T01:28:41.758Z,95610.13
2022-11-27T01:31:09.506Z,95610.81
2022-11-27T01:33:37.050Z,95614.16
2022-11-27T01:36:03.645Z,95611.31
2022-11-27T01:38:31.256Z,95614.53
2022-11-27T01:41:00.110Z,95611.06
2022-11-27T01:43:27.475Z,95609.28
2022-11-27T01:45:55.063Z,95601.41
2022-11-27T01:48:22.640Z,95596.28
2022-11-27T01:50:49.254Z,95595.56
2022-11-27T01:53:16.831Z,95588.88
2022-11-27T01:55:43.260Z,95591.97
2022-11-27T01:58:10.054Z,95602.72
2022-11-27T02:00:37.634Z,95604.28
2022-11-27T02:03:05.284Z,95593.31
2022-11-27T02:05:32.803Z,95585.81
2022-11-27T02:07:59.528Z,95586.75
2022-11-27T02:10:26.381Z,95582.34
2022-11-27T02:12:53.604Z,95582.81
2022-11-27T02:15:20.204Z,95578.19
2022-11-27T02:17:47.797Z,95572.69
2022-11-27T02:20:15.394Z,95578.28
2022-11-27T02:22:43.002Z,95572.00
2022-11-27T02:25:10.599Z,95567.19
2022-11-27T02:27:37.175Z,95559.91
2022-11-27T02:30:03.798Z,95548.47
2022-11-27T02:32:32.362Z,95548.94
2022-11-27T02:34:59.955Z,95544.19
2022-11-27T02:37:26.544Z,95543.91
2022-11-27T02:39:53.130Z,95535.09
2022-11-27T02:42:19.723Z,95532.47
2022-11-27T02:44:46.520Z,95533.41
2022-11-27T02:47:13.928Z,95538.66
2022-11-27T02:49:41.534Z,95540.34
2022-11-27T02:52:08.725Z,95539.66
2022-11-27T02:54:35.681Z,95538.66
2022-11-27T02:57:02.275Z,95540.22
2022-11-27T02:59:29.854Z,95530.31
2022-11-27T03:01:56.472Z,95536.28
2022-11-27T03:04:23.050Z,95539.72
2022-11-27T03:06:49.647Z,95536.38
2022-11-27T03:09:17.239Z,95527.81
2022-11-27T03:11:44.840Z,95529.72
2022-11-27T03:14:11.435Z,95531.03
2022-11-27T03:16:39.016Z,95527.38
2022-11-27T03:19:05.608Z,95532.00
2022-11-27T03:21:33.298Z,95519.13
2022-11-27T03:23:59.903Z,95519.81
2022-11-27T03:26:27.517Z,95517.56
2022-11-27T03:28:53.996Z,95512.44
2022-11-27T03:31:21.745Z,95514.38
2022-11-27T03:33:49.300Z,95519.63
2022-11-27T03:36:15.892Z,95517.00
2022-11-27T03:38:44.482Z,95517.22
2022-11-27T03:41:11.081Z,95523.44
2022-11-27T03:43:37.675Z,95514.03
2022-11-27T03:46:04.299Z,95515.59
2022-11-27T03:48:31.835Z,95514.72
2022-11-27T03:50:58.424Z,95511.56
2022-11-27T03:53:25.017Z,95511.56
2022-11-27T03:55:51.619Z,95509.31
2022-11-27T03:58:18.217Z,95518.13
2022-11-27T04:00:44.834Z,95521.13
2022-11-27T04:03:12.405Z,95517.78
2022-11-27T04:05:39.013Z,95527.44
2022-11-27T04:08:06.584Z,95531.88
2022-11-27T04:10:33.189Z,95530.31
2022-11-27T04:12:59.768Z,95523.28
2022-11-27T04:15:26.347Z,95524.22
2022-11-27T04:17:52.963Z,95522.34
2022-11-27T04:20:20.557Z,95525.19
2022-11-27T04:22:47.136Z,95519.00
2022-11-27T04:25:14.769Z,95525.78
2022-11-27T04:27:42.342Z,95529.00
2022-11-27T04:30:09.938Z,95527.09
2022-11-27T04:32:36.567Z,95520.66
2022-11-27T04:35:04.139Z,95517.78
2022-11-27T04:37:31.716Z,95516.44
2022-11-27T04:39:59.303Z,95516.81
2022-11-27T04:42:25.894Z,95510.63
2022-11-27T04:44:52.469Z,95511.47
2022-11-27T04:47:19.049Z,95510.50
2022-11-27T04:49:46.653Z,95509.56
2022-11-27T04:52:14.231Z,95513.97
2022-11-27T04:54:42.021Z,95515.59
2022-11-27T04:57:09.407Z,95511.34
2022-11-27T04:59:36.011Z,95521.09
2022-11-27T05:02:02.680Z,95517.31
2022-11-27T05:04:31.231Z,95516.94
2022-11-27T05:06:57.827Z,95510.66
2022-11-27T05:09:24.403Z,95519.00
2022-11-27T05:11:52.994Z,95514.34
2022-11-27T05:14:19.586Z,95512.09
2022-11-27T05:16:46.193Z,95517.13
2022-11-27T05:19:13.757Z,95520.22
2022-11-27T05:21:41.350Z,95519.47
2022-11-27T05:24:07.958Z,95512.47
2022-11-27T05:26:35.544Z,95514.34
2022-11-27T05:29:02.089Z,95513.41
2022-11-27T05:31:28.765Z,95505.34
2022-11-27T05:33:56.349Z,95502.56
2022-11-27T05:36:23.923Z,95493.66
2022-11-27T05:38:50.521Z,95491.75
2022-11-27T05:41:19.092Z,95492.22
2022-11-27T05:43:46.701Z,95510.19
2022-11-27T05:46:13.309Z,95515.19
2022-11-27T05:48:40.866Z,95516.84
2022-11-27T05:51:08.453Z,95515.91
2022-11-27T05:53:35.064Z,95506.00
2022-11-27T05:56:01.664Z,95513.28
2022-11-27T05:58:28.251Z,95500.94
2022-11-27T06:00:54.847Z,95499.25
2022-11-27T06:03:21.502Z,95491.75
2022-11-27T06:05:49.066Z,95494.59
2022-11-27T06:08:16.702Z,95491.97
2022-11-27T06:10:44.233Z,95489.38
2022-11-27T06:13:10.668Z,95488.63
2022-11-27T06:15:38.427Z,95493.19
2022-11-27T06:18:06.006Z,95489.72
2022-11-27T06:20:33.580Z,95490.78
2022-11-27T06:23:00.198Z,95480.66
2022-11-27T06:25:27.765Z,95483.53
2022-11-27T06:27:54.367Z,95481.13
2022-11-27T06:30:21.954Z,95477.94
2022-11-27T06:32:49.548Z,95475.78
2022-11-27T06:35:17.140Z,95477.44
2022-11-27T06:37:44.725Z,95478.13
2022-11-27T06:40:12.334Z,95479.91
2022-11-27T06:42:39.931Z,95475.75
2022-11-27T06:45:06.531Z,95480.88
2022-11-27T06:47:33.118Z,95474.81
2022-11-27T06:50:02.740Z,95466.03
2022-11-27T06:52:29.237Z,95471.47
2022-11-27T06:54:56.134Z,95468.75
2022-11-27T06:57:23.565Z,95469.69
2022-11-27T06:59:50.138Z,95469.59
2022-11-27T07:02:16.860Z,95479.09
2022-11-27T07:04:44.344Z,95474.81
2022-11-27T07:07:11.982Z,95464.91
2022-11-27T07:09:38.431Z,95470.88
2022-11-27T07:12:06.170Z,95459.13
2022-11-27T07:14:34.759Z,95466.34
2022-11-27T07:17:01.345Z,95460.91
2022-11-27T07:19:28.072Z,95456.03
2022-11-27T07:21:54.554Z,95450.44
2022-11-27T07:24:24.137Z,95450.91
2022-11-27T07:26:51.879Z,95460.91
2022-11-27T07:29:18.318Z,95458.88
2022-11-27T07:31:45.115Z,95467.34
2022-11-27T07:34:17.109Z,95468.66
2022-11-27T07:36:48.271Z,95467.22
2022-11-27T07:39:17.552Z,95471.28
2022-11-27T07:41:49.518Z,95465.78
2022-11-27T07:44:17.412Z,95465.06
2022-11-27T07:46:44.703Z,95459.50
2022-11-27T07:49:11.274Z,95456.16
2022-11-27T07:51:37.764Z,95449.13
2022-11-27T07:54:04.525Z,95444.84
2022-11-27T07:56:32.075Z,95442.47
2022-11-27T07:58:59.676Z,95445.22
2022-11-27T08:01:26.308Z,95446.03
2022-11-27T08:03:53.859Z,95442.81
2022-11-27T08:06:21.442Z,95448.31
2022-11-27T08:08:49.027Z,95445.22
2022-11-27T08:11:15.635Z,95443.19
2022-11-27T08:13:43.226Z,95448.78
2022-11-27T08:16:10.909Z,95444.47
2022-11-27T08:18:45.104Z,95442.22
2022-11-27T08:21:14.061Z,95433.31
2022-11-27T08:23:42.666Z,95437.69
2022-11-27T08:26:11.266Z,95436.13
2022-11-27T08:28:38.859Z,95436.50
2022-11-27T08:31:06.444Z,95426.47
2022-11-27T08:33:34.042Z,95424.56
2022-11-27T08:36:03.403Z,95428.50
2022-11-27T08:38:30.290Z,95428.59
2022-11-27T08:40:58.189Z,95416.88
2022-11-27T08:43:26.433Z,95411.75
2022-11-27T08:45:53.061Z,95414.47
2022-11-27T08:48:20.607Z,95412.03
2022-11-27T08:50:47.190Z,95413.81
2022-11-27T08:53:13.684Z,95401.31
2022-11-27T08:55:40.371Z,95402.88
2022-11-27T08:58:06.939Z,95406.69
2022-11-27T09:00:33.680Z,95412.56
2022-11-27T09:03:00.176Z,95414.34
2022-11-27T09:05:26.599Z,95414.78
2022-11-27T09:07:53.081Z,95418.19
2022-11-27T09:10:19.980Z,95416.22
2022-11-27T09:12:46.565Z,95408.13
2022-11-27T09:15:13.196Z,95410.16
2022-11-27T09:17:39.635Z,95404.31
2022-11-27T09:20:06.399Z,95401.06
2022-11-27T09:22:32.978Z,95398.88
2022-11-27T09:24:59.564Z,95394.59
2022-11-27T09:27:25.988Z,95389.50
2022-11-27T09:29:52.491Z,95383.13
2022-11-27T09:32:18.980Z,95399.31
2022-11-27T09:34:45.993Z,95391.81
2022-11-27T09:37:13.514Z,95380.06
2022-11-27T09:39:40.099Z,95381.31
2022-11-27T09:42:06.561Z,95377.41
2022-11-27T09:44:33.296Z,95371.59
2022-11-27T09:46:59.768Z,95377.69
2022-11-27T09:49:26.464Z,95375.47
2022-11-27T09:51:53.050Z,95365.44
2022-11-27T09:54:20.653Z,95368.38
2022-11-27T09:56:47.217Z,95365.03
2022-11-27T09:59:13.815Z,95353.88
2022-11-27T10:01:46.377Z,95354.19
2022-11-27T10:04:18.025Z,95355.22
2022-11-27T10:06:44.448Z,95356.91
2022-11-27T10:09:11.286Z,95360.22
2022-11-27T10:11:37.867Z,95356.47
2022-11-27T10:14:04.448Z,95360.63
2022-11-27T10:16:33.129Z,95353.69
2022-11-27T10:19:00.648Z,95352.97
2022-11-27T10:21:27.060Z,95348.22
2022-11-27T10:23:53.512Z,95348.91
2022-11-27T10:26:19.960Z,95344.72
2022-11-27T10:28:46.412Z,95347.19
2022-11-27T10:31:12.846Z,95341.66
2022-11-27T10:33:40.188Z,95342.63
2022-11-27T10:36:06.783Z,95332.47
2022-11-27T10:38:33.236Z,95325.75
2022-11-27T10:40:59.652Z,95321.84
2022-11-27T10:43:26.551Z,95324.72
2022-11-27T10:45:53.204Z,95318.84
2022-11-27T10:48:20.720Z,95313.13
2022-11-27T10:50:47.312Z,95304.94
2022-11-27T10:53:14.909Z,95301.00
2022-11-27T10:55:41.506Z,95295.59
2022-11-27T10:58:07.899Z,95294.63
2022-11-27T11:00:34.324Z,95289.16
2022-11-27T11:03:00.947Z,95295.13
2022-11-27T11:05:56.777Z,95289.72
2022-11-27T11:08:15.646Z,95288.88
2022-11-27T11:10:44.220Z,95286.91
2022-11-27T11:13:12.813Z,95274.41
2022-11-27T11:15:40.457Z,95273.94
2022-11-27T11:18:08.048Z,95271.00
2022-11-27T11:20:35.639Z,95258.47
2022-11-27T11:23:03.231Z,95256.38
2022-11-27T11:25:30.828Z,95257.88
2022-11-27T11:27:58.425Z,95253.41
2022-11-27T11:30:26.021Z,95253.75
2022-11-27T11:32:55.027Z,95247.50
2022-11-27T11:35:23.227Z,95248.13
2022-11-27T11:37:50.804Z,95242.88
2022-11-27T11:40:18.416Z,95238.75
2022-11-27T11:42:46.014Z,95237.72
2022-11-27T11:45:13.601Z,95228.00
2022-11-27T11:47:42.210Z,95229.00
2022-11-27T11:50:08.801Z,95231.47
2022-11-27T11:52:36.396Z,95220.78
2022-11-27T11:55:02.986Z,95220.78
2022-11-27T11:57:29.579Z,95219.25
2022-11-27T11:59:56.268Z,95209.53
2022-11-27T12:02:22.957Z,95208.56
2022-11-27T12:04:49.460Z,95198.84
2022-11-27T12:07:15.921Z,95193.56
2022-11-27T12:09:42.426Z,95198.16
2022-11-27T12:12:08.849Z,95195.00
2022-11-27T12:14:35.316Z,95189.72
2022-11-27T12:17:01.864Z,95177.84
2022-11-27T12:19:28.323Z,95181.44
2022-11-27T12:21:54.749Z,95179.94
2022-11-27T12:24:21.172Z,95185.38
2022-11-27T12:26:47.629Z,95175.81
2022-11-27T12:29:14.062Z,95168.03
2022-11-27T12:31:40.774Z,95166.38
2022-11-27T12:34:07.207Z,95164.72
2022-11-27T12:36:33.695Z,95160.28
2022-11-27T12:39:01.168Z,95154.50
2022-11-27T12:41:27.880Z,95151.16
2022-11-27T12:43:54.347Z,95157.97
2022-11-27T12:46:21.144Z,95143.94
2022-11-27T12:48:50.188Z,95145.88
2022-11-27T12:51:18.189Z,95143.94
2022-11-27T12:53:47.187Z,95138.53
2022-11-27T12:56:16.346Z,95127.13
2022-11-27T12:58:44.003Z,95122.97
2022-11-27T13:01:13.084Z,95124.78
2022-11-27T13:03:41.214Z,95112.28
2022-11-27T13:06:10.223Z,95108.13
2022-11-27T13:08:38.422Z,95107.47
2022-11-27T13:11:06.011Z,95104.16
2022-11-27T13:13:33.606Z,95102.81
2022-11-27T13:16:02.287Z,95095.53
2022-11-27T13:18:33.704Z,95089.44
2022-11-27T13:21:02.408Z,95086.09
2022-11-27T13:23:31.014Z,95080.31
2022-11-27T13:25:58.636Z,95087.72
2022-11-27T13:28:26.183Z,95082.25
2022-11-27T13:30:53.774Z,95079.91
2022-11-27T13:33:22.706Z,95077.56
2022-11-27T13:35:50.991Z,95075.78
2022-11-27T13:38:19.709Z,95072.59
2022-11-27T13:40:47.178Z,95072.78
2022-11-27T13:43:14.752Z,95064.88
2022-11-27T13:45:42.416Z,95058.22
2022-11-27T13:48:09.957Z,95051.31
2022-11-27T13:50:40.361Z,95043.72
2022-11-27T13:53:10.315Z,95030.84
2022-11-27T13:55:37.131Z,95028.38
2022-11-27T13:58:04.891Z,95024.38
2022-11-27T14:00:31.467Z,95019.25
2022-11-27T14:02:58.158Z,95021.41
2022-11-27T14:05:25.718Z,95007.53
2022-11-27T14:07:52.182Z,95008.66
2022-11-27T14:10:18.670Z,95012.28
2022-11-27T14:29:29.524Z,95006.59
2022-11-27T14:54:19.273Z,94988.84
2022-11-27T14:56:51.044Z,94992.59
2022-11-27T14:59:34.389Z,94999.16
2022-11-27T15:02:03.896Z,94991.13
2022-11-27T15:04:57.351Z,94983.63
2022-11-27T15:07:25.098Z,94986.44
2022-11-27T15:09:52.497Z,94983.78
2022-11-27T15:12:20.127Z,94984.91
2022-11-27T15:14:47.696Z,94982.41
2022-11-27T15:17:14.276Z,94989.66
2022-11-27T15:19:43.797Z,94987.31
2022-11-27T15:22:12.870Z,94992.06
2022-11-27T15:27:21.949Z,94979.28
2022-11-27T15:29:50.343Z,94980.41
2022-11-27T15:32:23.473Z,94972.16
2022-11-27T15:34:51.535Z,94966.34
2022-11-27T15:37:19.137Z,94967.63
2022-11-27T15:39:45.723Z,94965.81
2022-11-27T15:42:13.350Z,94965.97
2022-11-27T15:44:42.275Z,94966.28
2022-11-27T15:47:10.512Z,94963.28
2022-11-27T15:49:38.109Z,94962.88
2022-11-27T15:52:04.713Z,94958.19
2022-11-27T15:54:32.293Z,94963.91
2022-11-27T15:56:59.887Z,94954.66
2022-11-27T15:59:28.485Z,94961.22
2022-11-27T16:01:56.141Z,94956.22
2022-11-27T16:04:23.727Z,94953.78
2022-11-27T16:06:51.271Z,94954.88
2022-11-27T16:09:17.885Z,94945.63
2022-11-27T16:11:45.530Z,94936.09
2022-11-27T16:14:12.120Z,94930.81
2022-11-27T16:16:39.791Z,94925.84
2022-11-27T16:19:07.352Z,94925.19
2022-11-27T16:21:35.010Z,94926.16
2022-11-27T16:24:01.622Z,94928.09
2022-11-27T16:26:29.250Z,94929.06
2022-11-27T16:28:55.873Z,94918.03
2022-11-27T16:31:22.570Z,94925.63
2022-11-27T16:33:49.138Z,94921.34
2022-11-27T16:36:16.667Z,94922.59
2022-11-27T16:38:44.256Z,94914.88
2022-11-27T16:41:10.870Z,94914.72
2022-11-27T16:43:37.840Z,94911.28
2022-11-27T16:46:04.343Z,94911.44
2022-11-27T16:48:30.830Z,94908.94
2022-11-27T16:50:57.297Z,94905.78
2022-11-27T16:53:25.844Z,94910.34
2022-11-27T16:55:52.412Z,94905.53
2022-11-27T16:58:19.007Z,94898.94
2022-11-27T17:00:45.464Z,94889.53
2022-11-27T17:03:11.893Z,94884.72
2022-11-27T17:05:38.345Z,94892.88
2022-11-27T17:08:05.376Z,94877.56
2022-11-27T17:10:31.989Z,94873.84
2022-11-27T17:12:58.603Z,94865.44
2022-11-27T17:15:25.184Z,94857.88
2022-11-27T17:17:52.794Z,94856.50
2022-11-27T17:20:19.398Z,94853.47
2022-11-27T17:22:45.826Z,94856.41
2022-11-27T17:25:12.259Z,94843.03
2022-11-27T17:27:39.221Z,94837.06
2022-11-27T17:30:06.796Z,94841.66
2022-11-27T17:32:33.229Z,94828.81
2022-11-27T17:34:59.985Z,94822.91
2022-11-27T17:37:26.574Z,94824.13
2022-11-27T17:39:53.167Z,94820.03
2022-11-27T17:42:22.834Z,94813.94
2022-11-27T17:44:50.393Z,94811.75
2022-11-27T17:47:16.958Z,94823.66
2022-11-27T17:49:43.834Z,94821.44
2022-11-27T17:52:11.162Z,94816.38
2022-11-27T17:54:38.778Z,94814.56
2022-11-27T17:57:05.357Z,94808.31
2022-11-27T17:59:31.935Z,94800.44
2022-11-27T18:01:58.571Z,94801.13
2022-11-27T18:04:26.182Z,94806.38
2022-11-27T18:06:52.658Z,94803.63
2022-11-27T18:09:20.361Z,94804.16
2022-11-27T18:11:46.797Z,94799.59
2022-11-27T18:14:14.625Z,94797.63
2022-11-27T18:16:41.118Z,94789.50
2022-11-27T18:19:08.879Z,94784.22
2022-11-27T18:21:35.327Z,94782.44
2022-11-27T18:27:08.461Z,94771.38
2022-11-27T18:29:36.595Z,94772.22
2022-11-27T18:32:03.549Z,94774.31
2022-11-27T18:34:30.051Z,94777.91
2022-11-27T18:36:56.500Z,94781.81
2022-11-27T18:39:23.863Z,94771.44
2022-11-27T18:41:50.329Z,94777.53
2022-11-27T18:44:17.046Z,94768.00
2022-11-27T18:46:43.654Z,94774.06
2022-11-27T18:49:12.553Z,94772.28
2022-11-27T18:51:39.011Z,94771.31
2022-11-27T18:54:05.615Z,94766.75
2022-11-27T18:56:32.290Z,94758.88
2022-11-27T18:58:58.936Z,94759.25
2022-11-27T19:01:25.443Z,94757.00
2022-11-27T19:03:52.239Z,94746.38
2022-11-27T19:06:19.788Z,94741.94
2022-11-27T19:08:46.438Z,94740.00
2022-11-27T19:11:12.869Z,94738.06
2022-11-27T19:13:39.728Z,94730.00
2022-11-27T19:16:06.737Z,94726.41
2022-11-27T19:18:33.158Z,94730.00
2022-11-27T19:20:59.604Z,94723.97
2022-11-27T19:23:27.127Z,94724.09
2022-11-27T19:25:53.710Z,94717.19
2022-11-27T19:28:21.315Z,94723.41
2022-11-27T19:30:48.198Z,94719.94
2022-11-27T19:33:14.802Z,94723.72
2022-11-27T19:35:41.605Z,94717.63
2022-11-27T19:38:08.150Z,94721.22
2022-11-27T19:40:36.513Z,94714.31
2022-11-27T19:43:03.107Z,94715.16
2022-11-27T19:45:29.940Z,94703.00
2022-11-27T19:47:56.394Z,94702.03
2022-11-27T19:50:24.123Z,94708.94
2022-11-27T19:52:50.702Z,94708.09
2022-11-27T19:55:18.306Z,94703.69
2022-11-27T19:57:44.886Z,94704.88
2022-11-27T20:00:11.484Z,94700.59
2022-11-27T20:02:37.939Z,94703.69
2022-11-27T20:05:04.405Z,94695.94
2022-11-27T20:07:30.930Z,94692.50
2022-11-27T20:09:57.843Z,94685.75
2022-11-27T20:12:25.430Z,94679.50
2022-11-27T20:14:52.015Z,94672.31
2022-11-27T20:17:19.629Z,94671.88
2022-11-27T20:19:46.227Z,94664.69
2022-11-27T20:22:12.653Z,94665.66
2022-11-27T20:24:53.050Z,94671.88
2022-11-27T20:27:26.070Z,94666.78
2022-11-27T20:29:55.371Z,94658.09
2022-11-27T20:32:22.246Z,94657.25
2022-11-27T20:34:48.838Z,94656.44
2022-11-27T20:37:15.434Z,94653.94
2022-11-27T20:39:42.227Z,94645.94
2022-11-27T20:42:09.646Z,94641.97
2022-11-27T20:44:36.215Z,94640.44
2022-11-27T20:47:02.812Z,94639.63
2022-11-27T20:49:29.386Z,94638.13
2022-11-27T20:51:55.985Z,94634.50
2022-11-27T20:54:22.593Z,94633.69
2022-11-27T20:56:49.190Z,94626.34
2022-11-27T20:59:15.797Z,94629.25
2022-11-27T21:01:44.430Z,94625.00
2022-11-27T21:04:11.984Z,94628.16
2022-11-27T21:06:43.550Z,94624.56
2022-11-27T21:09:10.423Z,94623.72
2022-11-27T21:11:37.808Z,94623.41
2022-11-27T21:14:04.394Z,94625.22
2022-11-27T21:16:31.050Z,94619.53
2022-11-27T21:18:58.608Z,94610.00
2022-11-27T21:21:25.181Z,94598.00
2022-11-27T21:23:52.781Z,94599.78
2022-11-27T21:26:19.260Z,94613.88
2022-11-27T21:28:46.961Z,94610.59
2022-11-27T21:31:14.593Z,94607.97
2022-11-27T21:33:42.159Z,94612.09
2022-11-27T21:36:08.586Z,94612.50
2022-11-27T21:38:35.377Z,94612.31
2022-11-27T21:41:01.920Z,94598.22
2022-11-27T21:43:30.738Z,94593.28
2022-11-27T21:45:57.339Z,94589.97
2022-11-27T21:48:23.858Z,94589.16
2022-11-27T21:50:50.497Z,94593.44
2022-11-27T21:53:17.212Z,94583.75
2022-11-27T21:55:43.776Z,94582.63
2022-11-27T21:58:10.231Z,94587.34
2022-11-27T22:00:36.680Z,94584.22
2022-11-27T22:03:03.157Z,94591.25
2022-11-27T22:05:29.562Z,94586.53
2022-11-27T22:07:57.073Z,94587.72
2022-11-27T22:10:24.612Z,94589.13
2022-11-27T22:12:51.037Z,94574.22
2022-11-27T22:15:17.547Z,94578.13
2022-11-27T22:17:44.025Z,94568.28
2022-11-27T22:20:11.039Z,94574.69
2022-11-27T22:22:38.629Z,94576.84
2022-11-27T22:25:05.274Z,94568.22
2022-11-27T22:27:32.832Z,94564.47
2022-11-27T22:29:59.456Z,94561.63
2022-11-27T22:32:26.090Z,94560.34
2022-11-27T22:34:52.723Z,94559.59
2022-11-27T22:37:21.342Z,94553.44
2022-11-27T22:39:48.049Z,94551.41
2022-11-27T22:42:14.833Z,94554.03
2022-11-27T22:44:41.512Z,94552.38
2022-11-27T22:47:08.081Z,94552.09
2022-11-27T22:49:34.476Z,94543.25
2022-11-27T22:52:00.907Z,94547.69
2022-11-27T22:54:27.318Z,94540.47
2022-11-27T22:56:53.731Z,94540.78
2022-11-27T22:59:35.560Z,94536.34
2022-11-27T23:02:02.056Z,94545.72
2022-11-27T23:04:28.497Z,94547.38
2022-11-27T23:06:54.966Z,94538.06
2022-11-27T23:09:21.410Z,94543.50
2022-11-27T23:11:47.868Z,94548.56
2022-11-27T23:14:15.399Z,94551.44
2022-11-27T23:16:43.063Z,94536.00
2022-11-27T23:19:10.725Z,94540.47
2022-11-27T23:21:38.188Z,94542.28
2022-11-27T23:24:04.767Z,94540.31
2022-11-27T23:26:31.372Z,94546.53
2022-11-27T23:28:57.834Z,94541.97
2022-11-27T23:31:31.965Z,94547.22
2022-11-27T23:33:58.591Z,94547.38
2022-11-27T23:36:25.763Z,94559.66
2022-11-27T23:38:53.344Z,94555.41
2022-11-27T23:41:20.931Z,94559.44
2022-11-27T23:43:47.528Z,94558.44
2022-11-27T23:46:14.199Z,94547.13
2022-11-27T23:48:41.730Z,94552.28
2022-11-27T23:51:08.124Z,94542.88
2022-11-27T23:53:34.559Z,94544.84
2022-11-27T23:56:00.963Z,94528.16
2022-11-27T23:58:28.142Z,94529.13
